Bartlett, Texas
Current Conditions -  °F | °C
As of 6:58 AM on Wednesday 26 Nov 2014 (Local Time) from KGRK Reporting Station
Clear Clear  
Wind Chill: 40°   Ceiling: Unl
Heat Index: 46°   Visibility: 10mi
Dew Point: 26°   Wind: 14mph
Humidity: 46%   Direction: 230°SW
Pressure: 30.12"   Gusts: NA
Location:  30.79°N, 97.43°W
Report Text: KGRK 261258Z AUTO 23012KT 10SM CLR 08/M03 A3012 RMK AO2 SLP201 T00781033
Loading
Personal Weather Stations






























Interactive Weather Map New forecast layout! Learn more

10-Day Weather Forecast

Advertisements
Track Severe Weather on mobile